Terminal Aerodrome Forecast
Issued by NWS

Home | Current Version | Previous Version | Text Only | Print | Product List | Glossary On
Versions: 1 2 3 4 5 6 7 8 9 10 11 12
000
FTUS45 KTFX 032343
TAFLWT
TAF
KLWT 032343Z 0400/0424 07008KT P6SM SCT060 BKN120
     FM040800 10007KT P6SM -RA SCT035 BKN060
     FM041800 05007KT P6SM VCSH BKN080=

USA.gov is the U.S. government's official web portal to all federal, state and local government web resources and services.